Angel Fire, New Mexico
Current Conditions -  °F | °C
As of 9:35 PM on Wednesday 26 Nov 2014 (Local Time) from KAXX Reporting Station
Clear Clear  
Wind Chill: 17°   Ceiling: Unl
Heat Index: 24°   Visibility: 10mi
Dew Point: 17°   Wind: 6mph
Humidity: 75%   Direction: 280°W
Pressure: 30.47"   Gusts: NA
Location:  36.39°N, 105.29°W
Report Text: KAXX 270435Z AUTO 28005KT 10SM CLR M04/M08 A3047 RMK AO2 T10451083
Loading
Personal Weather Stations






























Interactive Weather Map New forecast layout! Learn more

10-Day Weather Forecast

Advertisements
Track Severe Weather on mobile